sensor_id;sensor_type;location;lat;lon;timestamp;P1;durP1;ratioP1;P2;durP2;ratioP2
63688;SDS011;54895;40.928;14.480;2022-12-19T00:00:32;6.00;;;2.80;;
63688;SDS011;54895;40.928;14.480;2022-12-19T00:02:58;6.28;;;2.95;;
63688;SDS011;54895;40.928;14.480;2022-12-19T00:05:24;6.43;;;3.15;;
63688;SDS011;54895;40.928;14.480;2022-12-19T00:07:50;5.95;;;3.17;;
63688;SDS011;54895;40.928;14.480;2022-12-19T00:10:18;4.97;;;3.80;;
63688;SDS011;54895;40.928;14.480;2022-12-19T00:12:44;8.25;;;4.20;;
63688;SDS011;54895;40.928;14.480;2022-12-19T00:15:10;4.75;;;3.00;;
63688;SDS011;54895;40.928;14.480;2022-12-19T00:17:36;5.38;;;2.90;;
63688;SDS011;54895;40.928;14.480;2022-12-19T00:23:26;4.57;;;3.03;;
63688;SDS011;54895;40.928;14.480;2022-12-19T00:25:53;6.68;;;3.80;;
63688;SDS011;54895;40.928;14.480;2022-12-19T00:28:19;5.95;;;3.95;;
63688;SDS011;54895;40.928;14.480;2022-12-19T00:30:46;6.30;;;3.65;;
63688;SDS011;54895;40.928;14.480;2022-12-19T00:33:12;7.70;;;4.15;;
63688;SDS011;54895;40.928;14.480;2022-12-19T00:35:40;5.68;;;3.80;;
63688;SDS011;54895;40.928;14.480;2022-12-19T00:38:09;6.60;;;3.90;;
63688;SDS011;54895;40.928;14.480;2022-12-19T00:40:35;6.60;;;4.00;;
63688;SDS011;54895;40.928;14.480;2022-12-19T00:43:04;5.70;;;3.50;;
63688;SDS011;54895;40.928;14.480;2022-12-19T00:45:31;6.18;;;3.50;;
63688;SDS011;54895;40.928;14.480;2022-12-19T00:47:57;4.78;;;3.42;;
63688;SDS011;54895;40.928;14.480;2022-12-19T00:50:23;5.97;;;4.03;;
63688;SDS011;54895;40.928;14.480;2022-12-19T00:52:49;6.53;;;3.53;;
63688;SDS011;54895;40.928;14.480;2022-12-19T00:55:15;6.47;;;3.67;;
63688;SDS011;54895;40.928;14.480;2022-12-19T00:57:42;12.68;;;4.68;;
63688;SDS011;54895;40.928;14.480;2022-12-19T01:00:12;14.82;;;4.78;;
63688;SDS011;54895;40.928;14.480;2022-12-19T01:02:38;7.05;;;4.10;;
63688;SDS011;54895;40.928;14.480;2022-12-19T01:05:05;5.18;;;3.92;;
63688;SDS011;54895;40.928;14.480;2022-12-19T01:07:31;5.70;;;3.53;;
63688;SDS011;54895;40.928;14.480;2022-12-19T01:09:59;5.57;;;3.28;;
63688;SDS011;54895;40.928;14.480;2022-12-19T01:12:27;6.78;;;3.47;;
63688;SDS011;54895;40.928;14.480;2022-12-19T01:15:15;6.18;;;3.40;;
63688;SDS011;54895;40.928;14.480;2022-12-19T01:17:48;6.22;;;3.70;;
63688;SDS011;54895;40.928;14.480;2022-12-19T01:23:56;5.80;;;3.55;;
63688;SDS011;54895;40.928;14.480;2022-12-19T01:26:22;5.78;;;3.30;;
63688;SDS011;54895;40.928;14.480;2022-12-19T01:28:48;6.38;;;2.90;;
63688;SDS011;54895;40.928;14.480;2022-12-19T01:31:14;7.72;;;3.92;;
63688;SDS011;54895;40.928;14.480;2022-12-19T01:33:41;5.45;;;3.03;;
63688;SDS011;54895;40.928;14.480;2022-12-19T01:36:07;4.43;;;2.83;;
63688;SDS011;54895;40.928;14.480;2022-12-19T01:38:34;6.13;;;3.42;;
63688;SDS011;54895;40.928;14.480;2022-12-19T01:41:03;4.75;;;3.40;;
63688;SDS011;54895;40.928;14.480;2022-12-19T01:43:30;8.15;;;3.67;;
63688;SDS011;54895;40.928;14.480;2022-12-19T01:45:58;4.10;;;2.95;;
63688;SDS011;54895;40.928;14.480;2022-12-19T01:53:21;6.40;;;3.95;;
63688;SDS011;54895;40.928;14.480;2022-12-19T01:55:47;5.72;;;3.65;;
63688;SDS011;54895;40.928;14.480;2022-12-19T01:58:13;5.25;;;3.83;;
63688;SDS011;54895;40.928;14.480;2022-12-19T02:00:41;7.10;;;4.40;;
63688;SDS011;54895;40.928;14.480;2022-12-19T02:03:43;8.20;;;4.65;;
63688;SDS011;54895;40.928;14.480;2022-12-19T02:06:03;5.82;;;3.60;;
63688;SDS011;54895;40.928;14.480;2022-12-19T02:08:30;5.32;;;3.50;;
63688;SDS011;54895;40.928;14.480;2022-12-19T02:10:59;6.05;;;3.17;;
63688;SDS011;54895;40.928;14.480;2022-12-19T02:13:26;4.72;;;3.30;;
63688;SDS011;54895;40.928;14.480;2022-12-19T02:18:53;4.60;;;3.38;;
63688;SDS011;54895;40.928;14.480;2022-12-19T02:27:00;5.85;;;3.20;;
63688;SDS011;54895;40.928;14.480;2022-12-19T02:30:10;5.65;;;2.25;;
63688;SDS011;54895;40.928;14.480;2022-12-19T02:37:29;3.38;;;2.03;;
63688;SDS011;54895;40.928;14.480;2022-12-19T02:42:49;4.25;;;2.72;;
63688;SDS011;54895;40.928;14.480;2022-12-19T02:45:18;3.83;;;2.78;;
63688;SDS011;54895;40.928;14.480;2022-12-19T02:47:46;4.70;;;2.80;;
63688;SDS011;54895;40.928;14.480;2022-12-19T02:53:30;4.93;;;2.35;;
63688;SDS011;54895;40.928;14.480;2022-12-19T03:04:43;3.85;;;2.40;;
63688;SDS011;54895;40.928;14.480;2022-12-19T03:09:49;4.65;;;2.67;;
63688;SDS011;54895;40.928;14.480;2022-12-19T03:12:39;5.00;;;2.90;;
63688;SDS011;54895;40.928;14.480;2022-12-19T03:15:08;4.72;;;2.65;;
63688;SDS011;54895;40.928;14.480;2022-12-19T03:17:35;4.38;;;2.80;;
63688;SDS011;54895;40.928;14.480;2022-12-19T03:23:52;4.38;;;3.00;;
63688;SDS011;54895;40.928;14.480;2022-12-19T03:26:20;6.20;;;3.03;;
63688;SDS011;54895;40.928;14.480;2022-12-19T03:31:33;5.53;;;2.53;;
63688;SDS011;54895;40.928;14.480;2022-12-19T03:34:09;4.03;;;2.72;;
63688;SDS011;54895;40.928;14.480;2022-12-19T03:36:41;4.88;;;2.65;;
63688;SDS011;54895;40.928;14.480;2022-12-19T03:39:09;4.13;;;2.70;;
63688;SDS011;54895;40.928;14.480;2022-12-19T03:41:35;5.38;;;3.05;;
63688;SDS011;54895;40.928;14.480;2022-12-19T03:44:22;4.63;;;2.80;;
63688;SDS011;54895;40.928;14.480;2022-12-19T03:46:54;6.50;;;2.80;;
63688;SDS011;54895;40.928;14.480;2022-12-19T03:49:23;4.63;;;2.67;;
63688;SDS011;54895;40.928;14.480;2022-12-19T03:54:28;6.05;;;2.70;;
63688;SDS011;54895;40.928;14.480;2022-12-19T03:57:00;6.00;;;2.88;;
63688;SDS011;54895;40.928;14.480;2022-12-19T03:59:31;5.03;;;2.53;;
63688;SDS011;54895;40.928;14.480;2022-12-19T04:01:59;5.00;;;2.40;;
63688;SDS011;54895;40.928;14.480;2022-12-19T04:04:26;3.83;;;2.40;;
63688;SDS011;54895;40.928;14.480;2022-12-19T04:06:53;5.45;;;2.60;;
63688;SDS011;54895;40.928;14.480;2022-12-19T04:09:21;5.07;;;2.65;;
63688;SDS011;54895;40.928;14.480;2022-12-19T04:12:10;3.53;;;2.30;;
63688;SDS011;54895;40.928;14.480;2022-12-19T04:14:35;6.32;;;3.25;;
63688;SDS011;54895;40.928;14.480;2022-12-19T04:23:44;4.18;;;2.42;;
63688;SDS011;54895;40.928;14.480;2022-12-19T04:26:12;5.28;;;2.85;;
63688;SDS011;54895;40.928;14.480;2022-12-19T04:28:53;4.43;;;2.67;;
63688;SDS011;54895;40.928;14.480;2022-12-19T04:31:20;4.63;;;2.75;;
63688;SDS011;54895;40.928;14.480;2022-12-19T04:33:47;4.38;;;2.70;;
63688;SDS011;54895;40.928;14.480;2022-12-19T04:36:13;4.50;;;2.65;;
63688;SDS011;54895;40.928;14.480;2022-12-19T04:38:39;7.55;;;3.65;;
63688;SDS011;54895;40.928;14.480;2022-12-19T04:41:05;4.45;;;3.20;;
63688;SDS011;54895;40.928;14.480;2022-12-19T04:43:32;4.82;;;3.33;;
63688;SDS011;54895;40.928;14.480;2022-12-19T04:45:58;8.30;;;3.63;;
63688;SDS011;54895;40.928;14.480;2022-12-19T04:48:25;7.45;;;3.67;;
63688;SDS011;54895;40.928;14.480;2022-12-19T04:50:51;7.88;;;3.85;;
63688;SDS011;54895;40.928;14.480;2022-12-19T04:53:20;7.57;;;4.13;;
63688;SDS011;54895;40.928;14.480;2022-12-19T04:55:46;8.45;;;4.20;;
63688;SDS011;54895;40.928;14.480;2022-12-19T04:58:12;6.18;;;3.25;;
63688;SDS011;54895;40.928;14.480;2022-12-19T05:00:40;8.55;;;3.40;;
63688;SDS011;54895;40.928;14.480;2022-12-19T05:03:06;5.10;;;3.53;;
63688;SDS011;54895;40.928;14.480;2022-12-19T05:05:32;6.40;;;3.30;;
63688;SDS011;54895;40.928;14.480;2022-12-19T05:07:58;5.80;;;3.42;;
63688;SDS011;54895;40.928;14.480;2022-12-19T05:10:24;7.85;;;3.47;;
63688;SDS011;54895;40.928;14.480;2022-12-19T05:12:50;4.40;;;3.10;;
63688;SDS011;54895;40.928;14.480;2022-12-19T05:15:18;6.60;;;3.53;;
63688;SDS011;54895;40.928;14.480;2022-12-19T05:17:44;6.57;;;3.20;;
63688;SDS011;54895;40.928;14.480;2022-12-19T05:24:06;5.68;;;3.15;;
63688;SDS011;54895;40.928;14.480;2022-12-19T05:26:35;7.63;;;3.60;;
63688;SDS011;54895;40.928;14.480;2022-12-19T05:29:02;6.75;;;4.00;;
63688;SDS011;54895;40.928;14.480;2022-12-19T05:31:28;6.93;;;3.63;;
63688;SDS011;54895;40.928;14.480;2022-12-19T05:33:55;11.35;;;5.00;;
63688;SDS011;54895;40.928;14.480;2022-12-19T05:36:21;8.40;;;4.43;;
63688;SDS011;54895;40.928;14.480;2022-12-19T05:38:47;6.85;;;4.00;;
63688;SDS011;54895;40.928;14.480;2022-12-19T05:41:32;8.98;;;4.78;;
63688;SDS011;54895;40.928;14.480;2022-12-19T05:43:58;10.27;;;5.93;;
63688;SDS011;54895;40.928;14.480;2022-12-19T05:46:24;10.15;;;7.07;;
63688;SDS011;54895;40.928;14.480;2022-12-19T05:48:50;11.23;;;6.47;;
63688;SDS011;54895;40.928;14.480;2022-12-19T05:51:17;8.13;;;4.72;;
63688;SDS011;54895;40.928;14.480;2022-12-19T05:53:43;13.85;;;6.68;;
63688;SDS011;54895;40.928;14.480;2022-12-19T05:56:20;9.20;;;5.57;;
63688;SDS011;54895;40.928;14.480;2022-12-19T05:58:46;11.73;;;6.57;;
63688;SDS011;54895;40.928;14.480;2022-12-19T06:01:14;11.50;;;6.75;;
63688;SDS011;54895;40.928;14.480;2022-12-19T06:03:41;9.57;;;6.18;;
63688;SDS011;54895;40.928;14.480;2022-12-19T06:06:17;7.97;;;5.63;;
63688;SDS011;54895;40.928;14.480;2022-12-19T06:08:44;10.10;;;6.05;;
63688;SDS011;54895;40.928;14.480;2022-12-19T06:11:10;10.05;;;5.93;;
63688;SDS011;54895;40.928;14.480;2022-12-19T06:13:37;10.05;;;6.50;;
63688;SDS011;54895;40.928;14.480;2022-12-19T06:16:05;8.98;;;5.38;;
63688;SDS011;54895;40.928;14.480;2022-12-19T06:18:31;11.27;;;5.63;;
63688;SDS011;54895;40.928;14.480;2022-12-19T06:21:01;15.10;;;7.90;;
63688;SDS011;54895;40.928;14.480;2022-12-19T06:23:29;14.15;;;8.50;;
63688;SDS011;54895;40.928;14.480;2022-12-19T06:25:56;13.20;;;6.80;;
63688;SDS011;54895;40.928;14.480;2022-12-19T06:28:22;13.90;;;7.75;;
63688;SDS011;54895;40.928;14.480;2022-12-19T06:30:49;15.68;;;7.90;;
63688;SDS011;54895;40.928;14.480;2022-12-19T06:33:15;29.42;;;17.45;;
63688;SDS011;54895;40.928;14.480;2022-12-19T06:35:41;26.25;;;12.43;;
63688;SDS011;54895;40.928;14.480;2022-12-19T06:38:07;19.15;;;9.63;;
63688;SDS011;54895;40.928;14.480;2022-12-19T06:40:33;14.68;;;8.00;;
63688;SDS011;54895;40.928;14.480;2022-12-19T06:43:18;15.70;;;7.80;;
63688;SDS011;54895;40.928;14.480;2022-12-19T06:45:44;15.10;;;8.13;;
63688;SDS011;54895;40.928;14.480;2022-12-19T06:48:10;17.58;;;8.23;;
63688;SDS011;54895;40.928;14.480;2022-12-19T06:50:36;12.18;;;7.35;;
63688;SDS011;54895;40.928;14.480;2022-12-19T06:53:03;13.65;;;7.53;;
63688;SDS011;54895;40.928;14.480;2022-12-19T06:55:30;12.60;;;7.10;;
63688;SDS011;54895;40.928;14.480;2022-12-19T06:57:56;16.05;;;6.90;;
63688;SDS011;54895;40.928;14.480;2022-12-19T07:00:22;11.95;;;6.88;;
63688;SDS011;54895;40.928;14.480;2022-12-19T07:02:48;14.65;;;7.85;;
63688;SDS011;54895;40.928;14.480;2022-12-19T07:05:15;12.98;;;7.30;;
63688;SDS011;54895;40.928;14.480;2022-12-19T07:07:41;12.90;;;7.13;;
63688;SDS011;54895;40.928;14.480;2022-12-19T07:10:08;10.90;;;7.07;;
63688;SDS011;54895;40.928;14.480;2022-12-19T07:12:34;12.23;;;7.03;;
63688;SDS011;54895;40.928;14.480;2022-12-19T07:15:00;17.17;;;7.50;;
63688;SDS011;54895;40.928;14.480;2022-12-19T07:17:26;13.90;;;8.18;;
63688;SDS011;54895;40.928;14.480;2022-12-19T07:19:54;19.60;;;8.45;;
63688;SDS011;54895;40.928;14.480;2022-12-19T07:22:20;14.95;;;8.60;;
63688;SDS011;54895;40.928;14.480;2022-12-19T07:24:46;20.55;;;8.15;;
63688;SDS011;54895;40.928;14.480;2022-12-19T07:27:12;13.73;;;8.15;;
63688;SDS011;54895;40.928;14.480;2022-12-19T07:29:38;15.52;;;9.20;;
63688;SDS011;54895;40.928;14.480;2022-12-19T07:32:10;14.90;;;8.00;;
63688;SDS011;54895;40.928;14.480;2022-12-19T07:34:36;15.95;;;9.18;;
63688;SDS011;54895;40.928;14.480;2022-12-19T07:37:02;15.15;;;8.38;;
63688;SDS011;54895;40.928;14.480;2022-12-19T07:39:29;15.15;;;8.48;;
63688;SDS011;54895;40.928;14.480;2022-12-19T07:41:55;14.73;;;7.45;;
63688;SDS011;54895;40.928;14.480;2022-12-19T07:44:31;17.42;;;9.00;;
63688;SDS011;54895;40.928;14.480;2022-12-19T07:46:58;17.48;;;9.13;;
63688;SDS011;54895;40.928;14.480;2022-12-19T07:49:24;17.30;;;8.70;;
63688;SDS011;54895;40.928;14.480;2022-12-19T07:51:50;21.35;;;10.45;;
63688;SDS011;54895;40.928;14.480;2022-12-19T07:54:17;18.42;;;9.52;;
63688;SDS011;54895;40.928;14.480;2022-12-19T07:56:43;16.17;;;9.43;;
63688;SDS011;54895;40.928;14.480;2022-12-19T07:59:11;15.65;;;10.07;;
63688;SDS011;54895;40.928;14.480;2022-12-19T08:01:37;17.85;;;10.63;;
63688;SDS011;54895;40.928;14.480;2022-12-19T08:04:04;21.40;;;9.50;;
63688;SDS011;54895;40.928;14.480;2022-12-19T08:06:30;17.33;;;10.13;;
63688;SDS011;54895;40.928;14.480;2022-12-19T08:08:56;17.95;;;11.23;;
63688;SDS011;54895;40.928;14.480;2022-12-19T08:11:22;15.90;;;9.82;;
63688;SDS011;54895;40.928;14.480;2022-12-19T08:13:52;16.00;;;9.90;;
63688;SDS011;54895;40.928;14.480;2022-12-19T08:16:18;16.48;;;11.20;;
63688;SDS011;54895;40.928;14.480;2022-12-19T08:18:45;18.30;;;11.30;;
63688;SDS011;54895;40.928;14.480;2022-12-19T08:21:12;21.88;;;11.88;;
63688;SDS011;54895;40.928;14.480;2022-12-19T08:23:38;22.92;;;12.25;;
63688;SDS011;54895;40.928;14.480;2022-12-19T08:26:05;18.10;;;11.07;;
63688;SDS011;54895;40.928;14.480;2022-12-19T08:28:32;18.33;;;10.82;;
63688;SDS011;54895;40.928;14.480;2022-12-19T08:30:59;13.98;;;9.25;;
63688;SDS011;54895;40.928;14.480;2022-12-19T08:33:25;13.60;;;7.85;;
63688;SDS011;54895;40.928;14.480;2022-12-19T08:35:51;12.93;;;7.30;;
63688;SDS011;54895;40.928;14.480;2022-12-19T08:38:17;16.02;;;7.82;;
63688;SDS011;54895;40.928;14.480;2022-12-19T08:40:43;15.70;;;7.88;;
63688;SDS011;54895;40.928;14.480;2022-12-19T08:43:09;11.90;;;7.75;;
63688;SDS011;54895;40.928;14.480;2022-12-19T08:45:35;17.30;;;8.15;;
63688;SDS011;54895;40.928;14.480;2022-12-19T08:48:01;15.13;;;8.43;;
63688;SDS011;54895;40.928;14.480;2022-12-19T08:50:27;22.20;;;8.73;;
63688;SDS011;54895;40.928;14.480;2022-12-19T08:52:53;17.10;;;9.25;;
63688;SDS011;54895;40.928;14.480;2022-12-19T08:55:19;18.67;;;8.20;;
63688;SDS011;54895;40.928;14.480;2022-12-19T08:57:45;17.35;;;8.38;;
63688;SDS011;54895;40.928;14.480;2022-12-19T09:00:12;16.17;;;9.25;;
63688;SDS011;54895;40.928;14.480;2022-12-19T09:02:38;20.40;;;8.75;;
63688;SDS011;54895;40.928;14.480;2022-12-19T09:05:04;21.05;;;8.48;;
63688;SDS011;54895;40.928;14.480;2022-12-19T09:07:30;21.88;;;8.73;;
63688;SDS011;54895;40.928;14.480;2022-12-19T09:09:56;21.52;;;8.85;;
63688;SDS011;54895;40.928;14.480;2022-12-19T09:12:22;17.75;;;9.23;;
63688;SDS011;54895;40.928;14.480;2022-12-19T09:14:48;21.80;;;10.00;;
63688;SDS011;54895;40.928;14.480;2022-12-19T09:17:14;25.45;;;10.70;;
63688;SDS011;54895;40.928;14.480;2022-12-19T09:19:41;18.65;;;10.13;;
63688;SDS011;54895;40.928;14.480;2022-12-19T09:24:57;18.65;;;9.90;;
63688;SDS011;54895;40.928;14.480;2022-12-19T09:27:24;24.88;;;9.40;;
63688;SDS011;54895;40.928;14.480;2022-12-19T09:29:50;20.17;;;9.60;;
63688;SDS011;54895;40.928;14.480;2022-12-19T09:32:16;18.05;;;9.40;;
63688;SDS011;54895;40.928;14.480;2022-12-19T09:34:42;19.95;;;8.73;;
63688;SDS011;54895;40.928;14.480;2022-12-19T09:37:09;15.02;;;8.18;;
63688;SDS011;54895;40.928;14.480;2022-12-19T09:39:36;17.00;;;9.00;;
63688;SDS011;54895;40.928;14.480;2022-12-19T09:47:26;15.27;;;8.95;;
63688;SDS011;54895;40.928;14.480;2022-12-19T09:49:53;20.88;;;9.68;;
63688;SDS011;54895;40.928;14.480;2022-12-19T09:54:47;16.27;;;7.85;;
63688;SDS011;54895;40.928;14.480;2022-12-19T09:57:19;11.25;;;6.43;;
63688;SDS011;54895;40.928;14.480;2022-12-19T10:00:10;12.73;;;7.43;;
63688;SDS011;54895;40.928;14.480;2022-12-19T10:05:11;11.90;;;6.30;;
63688;SDS011;54895;40.928;14.480;2022-12-19T10:07:38;9.48;;;5.00;;
63688;SDS011;54895;40.928;14.480;2022-12-19T10:10:05;9.98;;;4.80;;
63688;SDS011;54895;40.928;14.480;2022-12-19T10:12:52;9.35;;;5.20;;
63688;SDS011;54895;40.928;14.480;2022-12-19T10:15:24;9.25;;;4.45;;
63688;SDS011;54895;40.928;14.480;2022-12-19T10:18:09;7.07;;;4.60;;
63688;SDS011;54895;40.928;14.480;2022-12-19T10:27:12;4.10;;;2.60;;
63688;SDS011;54895;40.928;14.480;2022-12-19T10:29:47;7.03;;;3.10;;
63688;SDS011;54895;40.928;14.480;2022-12-19T10:32:39;5.93;;;3.00;;
63688;SDS011;54895;40.928;14.480;2022-12-19T10:35:11;4.93;;;3.30;;
63688;SDS011;54895;40.928;14.480;2022-12-19T10:37:40;5.15;;;3.10;;
63688;SDS011;54895;40.928;14.480;2022-12-19T10:40:30;4.97;;;2.65;;
63688;SDS011;54895;40.928;14.480;2022-12-19T10:45:37;7.68;;;3.47;;
63688;SDS011;54895;40.928;14.480;2022-12-19T10:48:10;5.78;;;3.03;;
63688;SDS011;54895;40.928;14.480;2022-12-19T10:50:38;5.40;;;3.20;;
63688;SDS011;54895;40.928;14.480;2022-12-19T10:55:48;5.97;;;3.10;;
63688;SDS011;54895;40.928;14.480;2022-12-19T11:00:46;6.78;;;3.67;;
63688;SDS011;54895;40.928;14.480;2022-12-19T11:03:20;8.60;;;4.20;;
63688;SDS011;54895;40.928;14.480;2022-12-19T11:11:58;7.53;;;4.30;;
63688;SDS011;54895;40.928;14.480;2022-12-19T11:14:26;10.40;;;5.13;;
63688;SDS011;54895;40.928;14.480;2022-12-19T11:16:53;15.50;;;6.93;;
63688;SDS011;54895;40.928;14.480;2022-12-19T11:21:46;11.82;;;4.30;;
63688;SDS011;54895;40.928;14.480;2022-12-19T11:24:17;8.52;;;3.97;;
63688;SDS011;54895;40.928;14.480;2022-12-19T11:26:47;7.45;;;4.45;;
63688;SDS011;54895;40.928;14.480;2022-12-19T11:31:44;6.93;;;3.70;;
63688;SDS011;54895;40.928;14.480;2022-12-19T11:34:18;7.78;;;4.18;;
63688;SDS011;54895;40.928;14.480;2022-12-19T11:39:17;7.20;;;3.42;;
63688;SDS011;54895;40.928;14.480;2022-12-19T11:41:47;8.07;;;3.10;;
63688;SDS011;54895;40.928;14.480;2022-12-19T11:47:02;7.25;;;3.88;;
63688;SDS011;54895;40.928;14.480;2022-12-19T11:49:35;5.00;;;3.15;;
63688;SDS011;54895;40.928;14.480;2022-12-19T11:52:14;4.82;;;3.25;;
63688;SDS011;54895;40.928;14.480;2022-12-19T11:57:17;9.70;;;3.53;;
63688;SDS011;54895;40.928;14.480;2022-12-19T11:59:43;4.82;;;3.22;;
63688;SDS011;54895;40.928;14.480;2022-12-19T12:16:41;4.15;;;2.70;;
63688;SDS011;54895;40.928;14.480;2022-12-19T12:24:14;4.38;;;2.70;;
63688;SDS011;54895;40.928;14.480;2022-12-19T12:26:48;8.75;;;3.20;;
63688;SDS011;54895;40.928;14.480;2022-12-19T12:29:22;7.22;;;3.70;;
63688;SDS011;54895;40.928;14.480;2022-12-19T12:36:51;6.53;;;3.38;;
63688;SDS011;54895;40.928;14.480;2022-12-19T12:44:48;6.03;;;3.22;;
63688;SDS011;54895;40.928;14.480;2022-12-19T12:47:18;6.78;;;3.00;;
63688;SDS011;54895;40.928;14.480;2022-12-19T12:52:15;5.75;;;2.92;;
63688;SDS011;54895;40.928;14.480;2022-12-19T12:54:42;6.70;;;2.75;;
63688;SDS011;54895;40.928;14.480;2022-12-19T12:57:14;6.68;;;3.30;;
63688;SDS011;54895;40.928;14.480;2022-12-19T12:59:43;3.65;;;2.40;;
63688;SDS011;54895;40.928;14.480;2022-12-19T13:02:13;7.35;;;2.80;;
63688;SDS011;54895;40.928;14.480;2022-12-19T13:04:41;5.35;;;2.60;;
63688;SDS011;54895;40.928;14.480;2022-12-19T13:13:54;4.30;;;2.50;;
63688;SDS011;54895;40.928;14.480;2022-12-19T13:30:00;6.85;;;2.70;;
63688;SDS011;54895;40.928;14.480;2022-12-19T13:33:04;4.53;;;2.80;;
63688;SDS011;54895;40.928;14.480;2022-12-19T13:37:45;6.10;;;2.47;;
63688;SDS011;54895;40.928;14.480;2022-12-19T13:40:18;5.80;;;2.80;;
63688;SDS011;54895;40.928;14.480;2022-12-19T13:45:52;7.03;;;2.38;;
63688;SDS011;54895;40.928;14.480;2022-12-19T13:50:58;4.00;;;2.05;;
63688;SDS011;54895;40.928;14.480;2022-12-19T13:53:26;4.38;;;2.83;;
63688;SDS011;54895;40.928;14.480;2022-12-19T13:55:53;4.18;;;2.30;;
63688;SDS011;54895;40.928;14.480;2022-12-19T13:58:27;4.20;;;2.40;;
63688;SDS011;54895;40.928;14.480;2022-12-19T14:00:55;5.68;;;2.78;;
63688;SDS011;54895;40.928;14.480;2022-12-19T14:03:25;3.83;;;2.45;;
63688;SDS011;54895;40.928;14.480;2022-12-19T14:05:58;4.28;;;2.40;;
63688;SDS011;54895;40.928;14.480;2022-12-19T14:11:38;4.93;;;2.45;;
63688;SDS011;54895;40.928;14.480;2022-12-19T14:14:07;5.05;;;2.42;;
63688;SDS011;54895;40.928;14.480;2022-12-19T14:16:54;5.55;;;3.00;;
63688;SDS011;54895;40.928;14.480;2022-12-19T14:19:21;4.88;;;2.90;;
63688;SDS011;54895;40.928;14.480;2022-12-19T14:21:48;4.18;;;3.15;;
63688;SDS011;54895;40.928;14.480;2022-12-19T14:24:16;5.03;;;2.78;;
63688;SDS011;54895;40.928;14.480;2022-12-19T14:26:43;6.00;;;2.65;;
63688;SDS011;54895;40.928;14.480;2022-12-19T14:31:45;4.68;;;3.10;;
63688;SDS011;54895;40.928;14.480;2022-12-19T14:34:19;4.07;;;2.95;;
63688;SDS011;54895;40.928;14.480;2022-12-19T14:36:47;8.52;;;3.00;;
63688;SDS011;54895;40.928;14.480;2022-12-19T14:39:17;6.32;;;3.40;;
63688;SDS011;54895;40.928;14.480;2022-12-19T14:41:45;6.38;;;3.17;;
63688;SDS011;54895;40.928;14.480;2022-12-19T14:44:42;4.28;;;2.50;;
63688;SDS011;54895;40.928;14.480;2022-12-19T14:47:12;4.93;;;2.97;;
63688;SDS011;54895;40.928;14.480;2022-12-19T14:49:39;4.97;;;3.20;;
63688;SDS011;54895;40.928;14.480;2022-12-19T14:52:31;6.30;;;3.03;;
63688;SDS011;54895;40.928;14.480;2022-12-19T14:57:43;5.90;;;3.67;;
63688;SDS011;54895;40.928;14.480;2022-12-19T15:00:23;5.88;;;3.33;;
63688;SDS011;54895;40.928;14.480;2022-12-19T15:02:50;5.35;;;3.70;;
63688;SDS011;54895;40.928;14.480;2022-12-19T15:05:17;9.98;;;3.95;;
63688;SDS011;54895;40.928;14.480;2022-12-19T15:11:33;11.00;;;4.45;;
63688;SDS011;54895;40.928;14.480;2022-12-19T15:14:29;7.80;;;4.72;;
63688;SDS011;54895;40.928;14.480;2022-12-19T15:17:10;8.52;;;5.13;;
63688;SDS011;54895;40.928;14.480;2022-12-19T15:19:39;8.88;;;5.25;;
63688;SDS011;54895;40.928;14.480;2022-12-19T15:22:05;8.20;;;5.18;;
63688;SDS011;54895;40.928;14.480;2022-12-19T15:24:32;10.55;;;5.88;;
63688;SDS011;54895;40.928;14.480;2022-12-19T15:26:58;11.50;;;5.80;;
63688;SDS011;54895;40.928;14.480;2022-12-19T15:29:25;11.18;;;6.03;;
63688;SDS011;54895;40.928;14.480;2022-12-19T15:31:51;13.18;;;6.30;;
63688;SDS011;54895;40.928;14.480;2022-12-19T15:34:27;13.63;;;6.68;;
63688;SDS011;54895;40.928;14.480;2022-12-19T15:37:03;11.50;;;6.70;;
63688;SDS011;54895;40.928;14.480;2022-12-19T15:39:29;11.43;;;7.30;;
63688;SDS011;54895;40.928;14.480;2022-12-19T15:41:58;16.27;;;8.30;;
63688;SDS011;54895;40.928;14.480;2022-12-19T15:44:32;16.23;;;7.75;;
63688;SDS011;54895;40.928;14.480;2022-12-19T15:46:59;15.40;;;8.98;;
63688;SDS011;54895;40.928;14.480;2022-12-19T15:49:25;11.68;;;8.70;;
63688;SDS011;54895;40.928;14.480;2022-12-19T15:51:51;21.08;;;9.70;;
63688;SDS011;54895;40.928;14.480;2022-12-19T15:54:20;23.90;;;13.38;;
63688;SDS011;54895;40.928;14.480;2022-12-19T15:56:47;21.90;;;12.60;;
63688;SDS011;54895;40.928;14.480;2022-12-19T15:59:21;17.38;;;10.23;;
63688;SDS011;54895;40.928;14.480;2022-12-19T16:01:48;13.65;;;6.97;;
63688;SDS011;54895;40.928;14.480;2022-12-19T16:04:14;14.30;;;8.75;;
63688;SDS011;54895;40.928;14.480;2022-12-19T16:06:40;12.82;;;6.82;;
63688;SDS011;54895;40.928;14.480;2022-12-19T16:11:48;15.80;;;9.48;;
63688;SDS011;54895;40.928;14.480;2022-12-19T16:14:14;40.92;;;19.48;;
63688;SDS011;54895;40.928;14.480;2022-12-19T16:16:40;32.58;;;20.42;;
63688;SDS011;54895;40.928;14.480;2022-12-19T16:19:19;33.08;;;18.83;;
63688;SDS011;54895;40.928;14.480;2022-12-19T16:21:46;45.15;;;24.25;;
63688;SDS011;54895;40.928;14.480;2022-12-19T16:24:12;49.35;;;27.67;;
63688;SDS011;54895;40.928;14.480;2022-12-19T16:26:39;44.45;;;24.33;;
63688;SDS011;54895;40.928;14.480;2022-12-19T16:29:10;52.83;;;29.98;;
63688;SDS011;54895;40.928;14.480;2022-12-19T16:31:43;69.28;;;37.22;;
63688;SDS011;54895;40.928;14.480;2022-12-19T16:34:14;49.17;;;27.02;;
63688;SDS011;54895;40.928;14.480;2022-12-19T16:36:41;38.17;;;22.70;;
63688;SDS011;54895;40.928;14.480;2022-12-19T16:39:08;40.72;;;22.98;;
63688;SDS011;54895;40.928;14.480;2022-12-19T16:41:35;40.60;;;24.95;;
63688;SDS011;54895;40.928;14.480;2022-12-19T16:44:01;43.75;;;26.83;;
63688;SDS011;54895;40.928;14.480;2022-12-19T16:46:27;43.55;;;25.17;;
63688;SDS011;54895;40.928;14.480;2022-12-19T16:48:55;40.00;;;24.85;;
63688;SDS011;54895;40.928;14.480;2022-12-19T16:51:23;50.42;;;26.95;;
63688;SDS011;54895;40.928;14.480;2022-12-19T16:53:50;45.40;;;26.45;;
63688;SDS011;54895;40.928;14.480;2022-12-19T16:56:29;49.63;;;29.02;;
63688;SDS011;54895;40.928;14.480;2022-12-19T16:58:56;40.10;;;22.50;;
63688;SDS011;54895;40.928;14.480;2022-12-19T17:01:23;53.05;;;26.00;;
63688;SDS011;54895;40.928;14.480;2022-12-19T17:03:49;54.25;;;25.73;;
63688;SDS011;54895;40.928;14.480;2022-12-19T17:06:16;49.58;;;25.27;;
63688;SDS011;54895;40.928;14.480;2022-12-19T17:11:56;39.97;;;18.53;;
63688;SDS011;54895;40.928;14.480;2022-12-19T17:14:24;34.72;;;16.83;;
63688;SDS011;54895;40.928;14.480;2022-12-19T17:16:50;25.95;;;14.77;;
63688;SDS011;54895;40.928;14.480;2022-12-19T17:19:20;31.33;;;15.73;;
63688;SDS011;54895;40.928;14.480;2022-12-19T17:21:47;36.60;;;19.30;;
63688;SDS011;54895;40.928;14.480;2022-12-19T17:24:13;30.55;;;17.50;;
63688;SDS011;54895;40.928;14.480;2022-12-19T17:26:41;33.35;;;19.23;;
63688;SDS011;54895;40.928;14.480;2022-12-19T17:29:08;39.50;;;24.52;;
63688;SDS011;54895;40.928;14.480;2022-12-19T17:31:34;43.92;;;29.30;;
63688;SDS011;54895;40.928;14.480;2022-12-19T17:34:04;43.38;;;28.08;;
63688;SDS011;54895;40.928;14.480;2022-12-19T17:36:31;44.47;;;28.55;;
63688;SDS011;54895;40.928;14.480;2022-12-19T17:38:57;43.83;;;28.08;;
63688;SDS011;54895;40.928;14.480;2022-12-19T17:41:24;36.40;;;23.30;;
63688;SDS011;54895;40.928;14.480;2022-12-19T17:43:50;33.13;;;20.98;;